KRDG/RDG METAR and TAF weather

Enter ICAO airport designator
Station Type Date Time Source
KRDG METAR 2021/04/13 22:54 UTC NOAA

KRDG 132254Z 24005KT 10SM CLR 17/08 A3002 RMK AO2 SLP170 T01720078


Station Type Date Time Source
KRDG Decoded METAR 2021/04/13 22:54 UTC NOAA

READING REGIONAL AIRPORT, PA, United States (KRDG) 40-22N 075-58W 109M
Apr 13, 2021 - 06:54 PM EDT / 2021.04.13 2254 UTC
Wind: from the WSW (240 degrees) at 6 MPH (5 KT):0
Visibility: 10 mile(s):0
Sky conditions: clear
Temperature: 63.0 F (17.2 C)
Dew Point: 46.0 F (7.8 C)
Relative Humidity: 53%
Pressure (altimeter): 30.02 in. Hg (1016 hPa)
ob: KRDG 132254Z 24005KT 10SM CLR 17/08 A3002 RMK AO2 SLP170 T01720078
cycle: 23

Station Type Date Time Source
KRDG TAF 2021/04/13 18:36 UTC NOAA

TAF KRDG 131734Z 1318/1418 34005KT P6SM FEW025 FEW250
FM132100 VRB03KT P6SM FEW250
FM141100 VRB02KT P6SM SCT050 BKN110
FM141600 21005KT P6SM FEW025 OVC045
FM141700 22006KT 6SM -RA SCT012 OVC025

Example: see airport list